createdAt,value
2022-11-17T00:02:21.623Z,9.10
2022-11-17T00:04:49.967Z,6.77
2022-11-17T00:07:18.189Z,8.43
2022-11-17T00:09:46.495Z,6.27
2022-11-17T00:12:33.150Z,8.90
2022-11-17T00:15:01.599Z,4.77
2022-11-17T00:17:31.237Z,7.87
2022-11-17T00:20:17.217Z,6.57
2022-11-17T00:22:45.487Z,8.13
2022-11-17T00:25:13.704Z,10.00
2022-11-17T00:27:41.921Z,5.90
2022-11-17T00:30:30.483Z,8.50
2022-11-17T00:33:20.987Z,4.53
2022-11-17T00:35:52.739Z,7.23
2022-11-17T00:38:20.952Z,9.27
2022-11-17T00:40:49.188Z,6.13
2022-11-17T00:43:17.469Z,5.67
2022-11-17T00:45:45.696Z,8.33
2022-11-17T00:48:16.606Z,9.10
2022-11-17T00:50:44.839Z,6.37
2022-11-17T00:53:13.063Z,7.60
2022-11-17T00:55:41.413Z,5.40
2022-11-17T00:58:09.761Z,9.27
2022-11-17T01:00:37.969Z,7.27
2022-11-17T01:03:06.260Z,6.83
2022-11-17T01:05:37.360Z,7.73
2022-11-17T01:08:05.756Z,7.13
2022-11-17T01:10:36.076Z,9.30
2022-11-17T01:13:04.465Z,6.70
2022-11-17T01:15:35.584Z,5.83
2022-11-17T01:18:04.009Z,5.20
2022-11-17T01:20:32.265Z,5.97
2022-11-17T01:23:01.850Z,7.07
2022-11-17T01:25:30.071Z,5.90
2022-11-17T01:27:58.333Z,7.63
2022-11-17T01:30:26.531Z,7.83
2022-11-17T01:32:54.746Z,5.63
2022-11-17T01:35:23.008Z,9.83
2022-11-17T01:37:51.279Z,7.93
2022-11-17T01:40:20.889Z,5.07
2022-11-17T01:42:49.120Z,6.87
2022-11-17T01:45:21.177Z,9.07
2022-11-17T01:47:51.593Z,9.63
2022-11-17T01:50:26.766Z,7.80
2022-11-17T01:52:57.160Z,9.57
2022-11-17T01:55:27.616Z,6.77
2022-11-17T01:57:57.927Z,7.10
2022-11-17T02:00:26.274Z,7.37
2022-11-17T02:02:54.779Z,7.83
2022-11-17T02:05:29.830Z,10.47
2022-11-17T02:07:59.247Z,8.47
2022-11-17T02:10:31.865Z,8.23
2022-11-17T02:13:00.587Z,12.13
2022-11-17T02:15:29.970Z,8.20
2022-11-17T02:17:59.046Z,9.83
2022-11-17T02:20:41.179Z,9.27
2022-11-17T02:23:33.536Z,8.37
2022-11-17T02:26:29.824Z,10.43
2022-11-17T02:29:02.736Z,9.10
2022-11-17T02:31:35.470Z,9.30
2022-11-17T02:34:07.846Z,7.33
2022-11-17T02:36:38.483Z,8.47
2022-11-17T02:39:11.616Z,8.97
2022-11-17T02:41:45.168Z,9.70
2022-11-17T02:44:16.445Z,8.83
2022-11-17T02:46:46.233Z,9.83
2022-11-17T02:49:17.757Z,9.23
2022-11-17T02:51:46.583Z,10.63
2022-11-17T02:54:14.898Z,9.00
2022-11-17T02:56:43.488Z,9.40
2022-11-17T02:59:13.504Z,11.23
2022-11-17T03:01:51.853Z,10.87
2022-11-17T03:04:27.343Z,10.57
2022-11-17T03:06:59.809Z,9.80
2022-11-17T03:09:33.664Z,8.50
2022-11-17T03:12:03.517Z,8.57
2022-11-17T03:14:33.256Z,11.17
2022-11-17T03:17:03.732Z,9.27
2022-11-17T03:19:34.840Z,11.53
2022-11-17T03:22:06.114Z,11.67
2022-11-17T03:24:37.281Z,9.77
2022-11-17T03:27:07.785Z,11.97
2022-11-17T03:29:36.428Z,11.00
2022-11-17T03:32:08.294Z,10.60
2022-11-17T03:34:37.914Z,10.97
2022-11-17T03:37:07.806Z,12.77
2022-11-17T03:39:37.730Z,10.77
2022-11-17T03:42:08.610Z,10.33
2022-11-17T03:44:38.584Z,11.10
2022-11-17T03:47:08.807Z,14.17
2022-11-17T03:49:39.379Z,9.83
2022-11-17T03:52:07.837Z,9.97
2022-11-17T03:54:36.643Z,9.47
2022-11-17T03:57:07.731Z,11.70
2022-11-17T03:59:42.114Z,10.13
2022-11-17T04:02:14.996Z,11.10
2022-11-17T04:05:01.610Z,11.27
2022-11-17T04:07:29.881Z,11.23
2022-11-17T04:09:58.113Z,9.97
2022-11-17T04:12:44.012Z,14.23
2022-11-17T04:15:30.159Z,10.43
2022-11-17T04:17:59.839Z,11.27
2022-11-17T04:20:35.786Z,9.87
2022-11-17T04:23:11.409Z,11.03
2022-11-17T04:25:57.954Z,11.60
2022-11-17T04:28:39.159Z,13.90
2022-11-17T04:31:08.307Z,11.90
2022-11-17T04:33:38.437Z,11.47
2022-11-17T04:36:07.517Z,12.17
2022-11-17T04:38:35.788Z,11.07
2022-11-17T04:41:22.997Z,11.43
2022-11-17T04:43:51.244Z,11.93
2022-11-17T04:46:19.799Z,12.30
2022-11-17T04:48:49.643Z,11.37
2022-11-17T04:51:18.120Z,12.00
2022-11-17T04:53:46.660Z,11.47
2022-11-17T04:56:15.188Z,13.30
2022-11-17T04:58:43.513Z,11.10
2022-11-17T05:01:15.755Z,12.20
2022-11-17T05:03:44.808Z,11.07
2022-11-17T05:06:15.382Z,12.60
2022-11-17T05:08:43.893Z,13.57
2022-11-17T05:11:30.918Z,11.93
2022-11-17T05:13:59.330Z,11.77
2022-11-17T05:16:45.394Z,12.47
2022-11-17T05:19:14.873Z,11.63
2022-11-17T05:21:44.430Z,15.33
2022-11-17T05:24:11.904Z,18.70
2022-11-17T05:26:40.196Z,13.40
2022-11-17T05:29:09.238Z,13.67
2022-11-17T05:31:37.666Z,12.73
2022-11-17T05:34:06.533Z,11.47
2022-11-17T05:36:35.121Z,11.80
2022-11-17T05:39:05.298Z,13.00
2022-11-17T05:41:33.534Z,14.07
2022-11-17T05:44:01.887Z,11.37
2022-11-17T05:46:30.067Z,12.60
2022-11-17T05:48:58.266Z,11.80
2022-11-17T05:51:26.686Z,12.20
2022-11-17T05:53:54.949Z,12.50
2022-11-17T05:56:35.624Z,10.73
2022-11-17T05:59:06.903Z,13.67
2022-11-17T06:01:36.121Z,9.97
2022-11-17T06:04:05.178Z,10.37
2022-11-17T06:06:35.529Z,11.30
2022-11-17T06:09:03.743Z,11.23
2022-11-17T06:11:32.134Z,10.40
2022-11-17T06:14:01.666Z,12.63
2022-11-17T06:16:31.604Z,10.27
2022-11-17T06:19:04.658Z,10.27
2022-11-17T06:21:49.308Z,9.83
2022-11-17T06:24:21.540Z,14.47
2022-11-17T06:26:49.801Z,10.53
2022-11-17T06:29:19.555Z,10.17
2022-11-17T06:31:48.003Z,10.27
2022-11-17T06:34:16.435Z,10.60
2022-11-17T06:36:44.699Z,10.60
2022-11-17T06:39:13.022Z,10.03
2022-11-17T06:41:41.337Z,11.90
2022-11-17T06:44:09.546Z,12.57
2022-11-17T06:46:39.270Z,10.63
2022-11-17T06:49:07.937Z,11.30
2022-11-17T06:51:38.934Z,10.17
2022-11-17T06:54:12.290Z,9.27
2022-11-17T06:56:40.606Z,11.53
2022-11-17T06:59:08.922Z,9.73
2022-11-17T07:01:38.720Z,9.90
2022-11-17T07:04:07.662Z,11.90
2022-11-17T07:06:37.918Z,10.87
2022-11-17T07:09:06.429Z,8.97
2022-11-17T07:11:36.539Z,9.20
2022-11-17T07:14:04.863Z,10.07
2022-11-17T07:16:33.150Z,9.77
2022-11-17T07:19:03.844Z,10.40
2022-11-17T07:21:32.485Z,9.00
2022-11-17T07:24:00.883Z,9.30
2022-11-17T07:26:29.250Z,9.40
2022-11-17T07:28:57.674Z,9.00
2022-11-17T07:31:26.019Z,8.93
2022-11-17T07:33:55.075Z,9.67
2022-11-17T07:36:24.761Z,8.87
2022-11-17T07:38:53.130Z,9.40
2022-11-17T07:41:21.385Z,10.93
2022-11-17T07:43:49.778Z,7.73
2022-11-17T07:46:18.105Z,8.00
2022-11-17T07:48:46.467Z,8.20
2022-11-17T07:51:15.850Z,8.30
2022-11-17T07:53:45.544Z,7.73
2022-11-17T07:56:14.066Z,8.77
2022-11-17T07:58:42.673Z,7.83
2022-11-17T08:01:12.111Z,7.77
2022-11-17T08:03:41.244Z,7.83
2022-11-17T08:06:10.062Z,7.63
2022-11-17T08:08:39.103Z,8.23
2022-11-17T08:11:09.613Z,7.80
2022-11-17T08:13:38.482Z,7.60
2022-11-17T08:16:07.481Z,6.73
2022-11-17T08:18:36.754Z,6.77
2022-11-17T08:21:05.751Z,8.00
2022-11-17T08:23:34.177Z,9.63
2022-11-17T08:26:03.557Z,7.13
2022-11-17T08:28:33.944Z,6.83
2022-11-17T08:31:02.861Z,7.20
2022-11-17T08:33:31.093Z,6.30
2022-11-17T08:35:59.455Z,6.60
2022-11-17T08:38:29.143Z,6.83
2022-11-17T08:40:57.616Z,7.67
2022-11-17T08:43:26.051Z,6.60
2022-11-17T08:45:55.752Z,6.40
2022-11-17T08:48:24.114Z,6.03
2022-11-17T08:50:52.520Z,6.13
2022-11-17T08:53:21.902Z,5.63
2022-11-17T08:55:50.255Z,6.13
2022-11-17T08:58:18.585Z,6.63
2022-11-17T09:00:47.793Z,7.93
2022-11-17T09:03:17.549Z,5.67
2022-11-17T09:05:47.043Z,5.97
2022-11-17T09:08:44.465Z,9.10
2022-11-17T09:11:06.539Z,5.50
2022-11-17T09:13:35.018Z,6.10
2022-11-17T09:16:03.812Z,8.10
2022-11-17T09:18:33.623Z,5.97
2022-11-17T09:21:03.759Z,6.70
2022-11-17T09:23:32.262Z,5.77
2022-11-17T09:26:01.103Z,5.60
2022-11-17T09:28:29.385Z,5.30
2022-11-17T09:30:59.573Z,5.10
2022-11-17T09:33:29.741Z,5.93
2022-11-17T09:35:59.929Z,6.57
2022-11-17T09:38:28.201Z,4.43
2022-11-17T09:40:58.454Z,4.33
2022-11-17T09:43:28.583Z,6.37
2022-11-17T09:46:03.155Z,6.87
2022-11-17T09:48:41.771Z,5.93
2022-11-17T09:51:14.129Z,7.53
2022-11-17T09:53:45.047Z,6.57
2022-11-17T09:56:15.729Z,6.73
2022-11-17T09:58:47.204Z,7.57
2022-11-17T10:01:16.750Z,6.73
2022-11-17T10:03:47.353Z,6.97
2022-11-17T10:06:18.880Z,10.60
2022-11-17T10:08:51.709Z,6.30
2022-11-17T10:11:35.931Z,7.27
2022-11-17T10:14:05.607Z,5.87
2022-11-17T10:16:34.033Z,5.93
2022-11-17T10:19:04.369Z,6.53
2022-11-17T10:21:34.308Z,5.57
2022-11-17T10:24:02.679Z,6.03
2022-11-17T10:26:33.996Z,5.50
2022-11-17T10:29:09.479Z,3.00
2022-11-17T10:31:45.124Z,6.60
2022-11-17T10:34:14.253Z,6.03
2022-11-17T10:36:50.635Z,4.30
2022-11-17T10:39:35.068Z,4.73
2022-11-17T10:42:04.792Z,3.23
2022-11-17T10:44:36.122Z,5.33
2022-11-17T10:47:07.265Z,4.00
2022-11-17T10:49:36.613Z,4.00
2022-11-17T10:52:17.244Z,4.17
2022-11-17T10:54:46.049Z,3.07
2022-11-17T10:57:18.469Z,4.60
2022-11-17T10:59:53.459Z,2.40
2022-11-17T11:02:29.230Z,3.87
2022-11-17T11:05:08.024Z,2.30
2022-11-17T11:07:38.125Z,3.00
2022-11-17T11:10:12.035Z,4.07
2022-11-17T11:12:43.567Z,6.33
2022-11-17T11:15:17.122Z,4.47
2022-11-17T11:17:45.421Z,4.33
2022-11-17T11:20:15.555Z,5.67
2022-11-17T11:22:47.772Z,4.47
2022-11-17T11:25:21.322Z,4.50
2022-11-17T11:27:58.172Z,4.83
2022-11-17T11:30:26.666Z,5.10
2022-11-17T11:33:02.469Z,4.03
2022-11-17T11:35:38.653Z,3.70
2022-11-17T11:38:19.183Z,6.87
2022-11-17T11:40:49.747Z,5.40
2022-11-17T11:43:25.420Z,5.60
2022-11-17T11:46:02.755Z,6.47
2022-11-17T11:48:33.771Z,5.80
2022-11-17T11:51:03.872Z,6.43
2022-11-17T11:53:44.117Z,13.50
2022-11-17T11:56:17.236Z,14.33
2022-11-17T11:58:48.677Z,8.93
2022-11-17T12:01:18.862Z,4.27
2022-11-17T12:03:50.436Z,2.13
2022-11-17T12:06:39.736Z,2.60
2022-11-17T12:09:14.390Z,4.20
2022-11-17T12:12:01.875Z,4.17
2022-11-17T12:14:31.083Z,2.70
2022-11-17T12:17:03.716Z,3.93
2022-11-17T12:19:50.042Z,2.13
2022-11-17T12:22:27.575Z,2.67
2022-11-17T12:24:58.621Z,2.87
2022-11-17T12:27:33.500Z,1.73
2022-11-17T12:30:02.579Z,2.37
2022-11-17T12:32:49.420Z,3.57
2022-11-17T12:35:26.114Z,8.30
2022-11-17T12:38:09.421Z,4.67
2022-11-17T12:40:46.206Z,2.17
2022-11-17T12:43:21.839Z,1.47
2022-11-17T12:45:56.235Z,2.00
2022-11-17T12:48:34.788Z,3.30
2022-11-17T12:51:07.174Z,2.10
2022-11-17T12:53:38.915Z,1.47
2022-11-17T12:56:28.218Z,2.13
2022-11-17T12:59:05.054Z,2.43
2022-11-17T13:01:39.443Z,3.90
2022-11-17T13:04:12.025Z,2.53
2022-11-17T13:06:40.663Z,2.13
2022-11-17T13:09:12.309Z,2.47
2022-11-17T13:11:41.223Z,3.80
2022-11-17T13:14:13.191Z,2.30
2022-11-17T13:16:46.238Z,2.73
2022-11-17T13:19:31.842Z,3.60
2022-11-17T13:22:02.161Z,3.23
2022-11-17T13:24:32.256Z,2.90
2022-11-17T13:27:01.466Z,2.83
2022-11-17T13:29:31.795Z,3.67
2022-11-17T13:32:17.568Z,1.87
2022-11-17T13:34:50.685Z,2.97
2022-11-17T13:37:20.151Z,2.30
2022-11-17T13:40:03.401Z,1.67
2022-11-17T13:42:33.240Z,2.50
2022-11-17T13:45:04.565Z,3.03
2022-11-17T13:47:43.393Z,2.10
2022-11-17T13:50:25.187Z,2.07
2022-11-17T13:52:55.309Z,2.13
2022-11-17T13:55:24.064Z,2.67
2022-11-17T13:57:56.850Z,2.50
2022-11-17T14:00:26.810Z,2.53
2022-11-17T14:02:55.353Z,1.87
2022-11-17T14:05:25.483Z,5.70
2022-11-17T14:07:54.591Z,2.10
2022-11-17T14:10:31.398Z,2.07
2022-11-17T14:13:21.952Z,2.83
2022-11-17T14:15:55.982Z,3.20
2022-11-17T14:18:36.844Z,2.00
2022-11-17T14:21:15.592Z,2.97
2022-11-17T14:23:44.411Z,2.40
2022-11-17T14:26:19.527Z,3.20
2022-11-17T14:28:48.918Z,1.67
2022-11-17T14:31:18.939Z,2.10
2022-11-17T14:33:47.364Z,2.20
2022-11-17T14:36:17.304Z,3.37
2022-11-17T14:38:46.513Z,3.57
2022-11-17T14:41:16.047Z,3.90
2022-11-17T14:43:44.422Z,11.20
2022-11-17T14:46:18.634Z,3.43
2022-11-17T14:48:48.481Z,4.50
2022-11-17T14:51:17.224Z,4.57
2022-11-17T14:53:46.098Z,7.93
2022-11-17T14:56:17.775Z,1.30
2022-11-17T14:58:46.597Z,5.47
2022-11-17T15:01:21.033Z,4.87
2022-11-17T15:03:52.750Z,5.73
2022-11-17T15:06:24.127Z,5.57
2022-11-17T15:08:55.063Z,2.20
2022-11-17T15:11:23.470Z,3.67
2022-11-17T15:13:51.809Z,5.67
2022-11-17T15:16:20.152Z,3.77
2022-11-17T15:18:48.814Z,3.93
2022-11-17T15:21:19.026Z,3.27
2022-11-17T15:23:47.687Z,3.20
2022-11-17T15:26:18.685Z,3.50
2022-11-17T15:28:47.606Z,4.33
2022-11-17T15:31:16.555Z,3.87
2022-11-17T15:33:45.649Z,3.30
2022-11-17T15:36:15.581Z,4.37
2022-11-17T15:38:45.317Z,2.57
2022-11-17T15:41:14.185Z,3.33
2022-11-17T15:43:43.394Z,3.27
2022-11-17T15:46:13.131Z,2.47
2022-11-17T15:48:43.290Z,3.77
2022-11-17T15:51:12.241Z,3.67
2022-11-17T15:53:40.808Z,5.13
2022-11-17T15:56:12.524Z,4.07
2022-11-17T15:58:42.102Z,3.43
2022-11-17T16:01:14.919Z,3.30
2022-11-17T16:03:43.909Z,4.80
2022-11-17T16:06:12.823Z,6.90
2022-11-17T16:08:41.439Z,3.20
2022-11-17T16:11:11.528Z,4.00
2022-11-17T16:13:40.033Z,2.67
2022-11-17T16:16:09.420Z,3.30
2022-11-17T16:18:39.075Z,3.43
2022-11-17T16:21:08.100Z,4.83
2022-11-17T16:23:39.958Z,3.83
2022-11-17T16:26:08.626Z,3.57
2022-11-17T16:28:38.572Z,4.63
2022-11-17T16:31:14.677Z,4.20
2022-11-17T16:33:43.490Z,6.13
2022-11-17T16:36:11.923Z,8.33
2022-11-17T16:38:55.061Z,14.20
2022-11-17T16:41:29.895Z,8.10
2022-11-17T16:43:59.890Z,6.10
2022-11-17T16:46:30.038Z,4.80
2022-11-17T16:48:58.833Z,12.13
2022-11-17T16:51:27.345Z,5.67
2022-11-17T16:53:57.098Z,5.83
2022-11-17T16:56:25.574Z,5.07
2022-11-17T16:58:54.899Z,7.77
2022-11-17T17:01:25.276Z,6.47
2022-11-17T17:03:57.313Z,7.80
2022-11-17T17:06:25.636Z,7.33
2022-11-17T17:08:57.583Z,7.87
2022-11-17T17:11:26.330Z,6.77
2022-11-17T17:13:56.248Z,5.67
2022-11-17T17:16:26.883Z,5.27
2022-11-17T17:18:59.541Z,5.77
2022-11-17T17:21:28.608Z,6.70
2022-11-17T17:23:57.612Z,6.13
2022-11-17T17:26:27.597Z,4.43
2022-11-17T17:28:57.284Z,5.07
2022-11-17T17:31:28.150Z,3.67
2022-11-17T17:33:56.731Z,4.73
2022-11-17T17:36:26.058Z,7.13
2022-11-17T17:38:56.553Z,4.43
2022-11-17T17:41:26.686Z,5.23
2022-11-17T17:44:01.493Z,5.43
2022-11-17T17:46:32.872Z,3.97
2022-11-17T17:49:01.732Z,3.80
2022-11-17T17:51:30.633Z,6.73
2022-11-17T17:54:00.985Z,3.30
2022-11-17T17:56:30.535Z,5.10
2022-11-17T17:58:59.471Z,5.00
2022-11-17T18:01:28.699Z,4.10
2022-11-17T18:04:01.472Z,5.10
2022-11-17T18:06:30.661Z,4.47
2022-11-17T18:08:59.452Z,4.37
2022-11-17T18:11:30.074Z,7.97
2022-11-17T18:14:00.235Z,7.23
2022-11-17T18:16:29.882Z,6.67
2022-11-17T18:19:01.070Z,6.13
2022-11-17T18:21:29.777Z,5.40
2022-11-17T18:23:59.236Z,7.07
2022-11-17T18:26:28.326Z,8.70
2022-11-17T18:28:57.752Z,4.33
2022-11-17T18:31:27.323Z,5.13
2022-11-17T18:33:56.295Z,6.63
2022-11-17T18:36:26.544Z,5.13
2022-11-17T18:38:54.994Z,6.10
2022-11-17T18:41:23.813Z,3.73
2022-11-17T18:43:52.458Z,2.97
2022-11-17T18:46:21.541Z,5.10
2022-11-17T18:48:54.377Z,3.50
2022-11-17T18:51:23.838Z,3.80
2022-11-17T18:53:57.249Z,9.80
2022-11-17T18:56:26.667Z,4.63
2022-11-17T18:58:55.077Z,3.60
2022-11-17T19:01:24.641Z,4.13
2022-11-17T19:03:53.837Z,4.33
2022-11-17T19:06:22.963Z,3.60
2022-11-17T19:08:53.652Z,5.67
2022-11-17T19:11:23.274Z,7.07
2022-11-17T19:13:52.386Z,6.87
2022-11-17T19:16:21.966Z,6.60
2022-11-17T19:18:51.012Z,7.73
2022-11-17T19:21:20.504Z,5.37
2022-11-17T19:23:52.155Z,6.87
2022-11-17T19:26:23.245Z,3.67
2022-11-17T19:28:52.081Z,5.57
2022-11-17T19:31:21.338Z,6.27
2022-11-17T19:33:50.266Z,5.30
2022-11-17T19:36:20.097Z,6.63
2022-11-17T19:38:49.991Z,5.43
2022-11-17T19:41:19.733Z,4.97
2022-11-17T19:43:49.618Z,7.20
2022-11-17T19:46:18.636Z,5.47
2022-11-17T19:48:47.215Z,5.77
2022-11-17T19:51:18.626Z,8.70
2022-11-17T19:53:46.978Z,8.73
2022-11-17T19:56:15.478Z,24.23
2022-11-17T19:58:43.799Z,5.87
2022-11-17T20:01:14.448Z,4.87
2022-11-17T20:03:49.271Z,4.83
2022-11-17T20:06:19.226Z,4.73
2022-11-17T20:08:48.350Z,7.57
2022-11-17T20:11:18.446Z,7.80
2022-11-17T20:13:47.035Z,7.00
2022-11-17T20:16:18.515Z,6.40
2022-11-17T20:18:50.213Z,5.43
2022-11-17T20:21:19.035Z,6.03
2022-11-17T20:23:47.638Z,5.40
2022-11-17T20:26:16.881Z,4.10
2022-11-17T20:28:45.558Z,7.83
2022-11-17T20:31:15.393Z,8.10
2022-11-17T20:33:45.451Z,3.07
2022-11-17T20:36:14.693Z,3.03
2022-11-17T20:38:43.258Z,5.27
2022-11-17T20:41:11.698Z,5.90
2022-11-17T20:43:40.089Z,5.00
2022-11-17T20:46:08.459Z,5.87
2022-11-17T20:48:36.993Z,11.70
2022-11-17T20:51:07.786Z,4.73
2022-11-17T20:53:36.451Z,3.60
2022-11-17T20:56:06.177Z,6.90
2022-11-17T20:58:34.785Z,4.70
2022-11-17T21:01:08.564Z,5.17
2022-11-17T21:03:37.119Z,5.47
2022-11-17T21:06:07.276Z,3.83
2022-11-17T21:08:36.390Z,6.10
2022-11-17T21:11:05.846Z,5.47
2022-11-17T21:13:35.382Z,6.80
2022-11-17T21:16:07.792Z,7.77
2022-11-17T21:18:37.161Z,6.73
2022-11-17T21:21:09.182Z,8.67
2022-11-17T21:23:38.146Z,8.27
2022-11-17T21:26:07.024Z,10.10
2022-11-17T21:28:35.461Z,15.40
2022-11-17T21:31:05.396Z,18.47
2022-11-17T21:33:33.772Z,12.63
2022-11-17T21:36:02.795Z,8.20
2022-11-17T21:38:32.539Z,6.50
2022-11-17T21:41:03.774Z,10.20
2022-11-17T21:43:32.684Z,13.17
2022-11-17T21:46:04.203Z,7.37
2022-11-17T21:48:32.552Z,7.00
2022-11-17T21:51:00.972Z,7.33
2022-11-17T21:53:29.876Z,4.87
2022-11-17T21:56:05.588Z,4.53
2022-11-17T21:58:34.513Z,6.90
2022-11-17T22:01:07.691Z,8.47
2022-11-17T22:03:36.128Z,6.93
2022-11-17T22:06:09.620Z,5.43
2022-11-17T22:08:38.562Z,5.17
2022-11-17T22:11:09.414Z,6.73
2022-11-17T22:13:37.717Z,7.07
2022-11-17T22:16:06.978Z,9.83
2022-11-17T22:18:35.293Z,6.60
2022-11-17T22:21:03.877Z,7.17
2022-11-17T22:23:32.364Z,7.73
2022-11-17T22:26:01.480Z,7.80
2022-11-17T22:28:31.779Z,9.80
2022-11-17T22:31:00.111Z,6.77
2022-11-17T22:33:28.480Z,8.00
2022-11-17T22:36:00.423Z,5.83
2022-11-17T22:38:30.284Z,6.43
2022-11-17T22:41:00.599Z,6.47
2022-11-17T22:43:28.956Z,6.17
2022-11-17T22:45:58.831Z,6.87
2022-11-17T22:48:27.157Z,8.57
2022-11-17T22:50:58.743Z,5.90
2022-11-17T22:53:27.107Z,9.87
2022-11-17T22:55:55.743Z,8.63
2022-11-17T22:58:24.159Z,8.33
2022-11-17T23:00:53.040Z,8.30
2022-11-17T23:03:23.903Z,6.43
2022-11-17T23:05:52.628Z,8.37
2022-11-17T23:08:20.999Z,6.27
2022-11-17T23:10:49.313Z,7.03
2022-11-17T23:13:17.616Z,7.70
2022-11-17T23:15:45.858Z,7.43
2022-11-17T23:18:14.131Z,7.37
2022-11-17T23:20:43.783Z,9.57
2022-11-17T23:23:12.116Z,10.00
2022-11-17T23:25:40.950Z,6.37
2022-11-17T23:28:09.192Z,5.97
2022-11-17T23:30:37.476Z,7.07
2022-11-17T23:33:05.855Z,6.37
2022-11-17T23:35:35.133Z,7.43
2022-11-17T23:38:04.751Z,7.10
2022-11-17T23:40:33.026Z,6.77
2022-11-17T23:43:01.382Z,6.90
2022-11-17T23:45:29.716Z,7.53
2022-11-17T23:47:57.971Z,6.87
2022-11-17T23:50:26.282Z,9.03
2022-11-17T23:52:54.650Z,7.40
2022-11-17T23:55:24.328Z,5.57
2022-11-17T23:57:52.581Z,6.87
